Time;durP1;ratioP1;P1;durP2;ratioP2;P2;SDS_P1;SDS_P2;PMS_P1;PMS_P2;Temp;Humidity;BMP_temperature;BMP_pressure;BME280_temperature;BME280_humidity;BME280_pressure;Samples;Min_cycle;Max_cycle;Signal;HPM_P1;HPM_P2
2022/11/21 00:00:53;;;;;;;9.05;8.18;;;;;;;2.13;100.00;99341.77;1728075;80;21467;-68
2022/11/21 00:03:20;;;;;;;9.53;8.55;;;;;;;2.13;100.00;99343.92;1733054;80;21943;-67
2022/11/21 00:05:48;;;;;;;10.53;8.80;;;;;;;2.16;100.00;99345.60;1732787;80;21088;-67
2022/11/21 00:08:18;;;;;;;11.18;8.58;;;;;;;2.18;100.00;99347.73;1727996;81;21490;-66
2022/11/21 00:10:45;;;;;;;10.10;9.10;;;;;;;2.14;100.00;99343.02;1727993;80;21589;-66
2022/11/21 00:13:16;;;;;;;9.18;8.23;;;;;;;2.10;100.00;99330.98;1719350;80;20935;-67
2022/11/21 00:15:46;;;;;;;9.10;8.18;;;;;;;2.05;100.00;99321.09;1729497;80;21558;-68
2022/11/21 00:18:12;;;;;;;9.10;8.13;;;;;;;2.06;100.00;99330.61;1722642;81;24467;-69
2022/11/21 00:20:40;;;;;;;9.28;8.38;;;;;;;2.11;100.00;99330.11;1721535;80;21523;-68
2022/11/21 00:23:08;;;;;;;10.45;8.90;;;;;;;2.18;100.00;99307.53;1726528;81;21065;-68
2022/11/21 00:25:35;;;;;;;9.25;8.30;;;;;;;2.20;100.00;99305.77;1727238;81;21700;-68
2022/11/21 00:28:04;;;;;;;11.18;9.48;;;;;;;2.23;100.00;99307.03;1724389;80;21046;-68
2022/11/21 00:30:32;;;;;;;11.50;8.73;;;;;;;2.24;100.00;99304.87;1726064;80;21521;-69
2022/11/21 00:32:59;;;;;;;10.68;9.33;;;;;;;2.24;100.00;99297.08;1719794;80;21511;-69
2022/11/21 00:35:26;;;;;;;10.30;9.23;;;;;;;2.29;100.00;99299.15;1724938;80;21456;-68
2022/11/21 00:37:52;;;;;;;10.75;9.50;;;;;;;2.30;100.00;99287.91;1718811;80;21491;-68
2022/11/21 00:40:19;;;;;;;10.38;9.05;;;;;;;2.29;100.00;99280.14;1726781;80;21815;-68
2022/11/21 00:42:47;;;;;;;11.48;8.93;;;;;;;2.26;100.00;99284.06;1722309;80;20983;-69
2022/11/21 00:45:14;;;;;;;9.90;8.80;;;;;;;2.22;100.00;99278.06;1726713;80;21594;-69
2022/11/21 00:47:42;;;;;;;10.45;9.35;;;;;;;2.20;100.00;99272.49;1725066;81;21561;-68
2022/11/21 00:50:09;;;;;;;9.58;8.60;;;;;;;2.20;100.00;99282.87;1730694;80;21683;-68
2022/11/21 00:52:36;;;;;;;10.58;9.38;;;;;;;2.18;100.00;99277.70;1723312;81;21751;-68
2022/11/21 00:55:04;;;;;;;10.15;9.05;;;;;;;2.21;100.00;99270.33;1719927;80;21089;-68
2022/11/21 00:57:30;;;;;;;9.90;8.88;;;;;;;2.24;100.00;99280.64;1716517;81;21544;-69
2022/11/21 00:59:57;;;;;;;11.68;9.35;;;;;;;2.22;100.00;99272.88;1727804;80;21554;-68
2022/11/21 01:02:23;;;;;;;11.00;9.10;;;;;;;2.22;100.00;99275.92;1722729;80;21577;-68
2022/11/21 01:04:50;;;;;;;10.48;9.38;;;;;;;2.24;100.00;99281.52;1719062;80;21977;-69
2022/11/21 01:07:17;;;;;;;10.32;9.25;;;;;;;2.25;100.00;99275.44;1727965;80;21416;-68
2022/11/21 01:09:43;;;;;;;10.80;9.33;;;;;;;2.27;100.00;99281.91;1725285;80;21639;-68
2022/11/21 01:12:10;;;;;;;10.20;9.10;;;;;;;2.26;100.00;99277.58;1723224;80;21494;-68
2022/11/21 01:14:37;;;;;;;10.17;9.17;;;;;;;2.20;100.00;99275.94;1733198;80;21557;-70
2022/11/21 01:17:04;;;;;;;11.25;8.93;;;;;;;2.18;100.00;99284.18;1742678;80;21800;-67
2022/11/21 01:19:32;;;;;;;13.15;8.83;;;;;;;2.19;100.00;99275.53;1736594;80;21081;-67
2022/11/21 01:21:59;;;;;;;10.30;8.70;;;;;;;2.19;100.00;99286.36;1726481;81;21533;-67
2022/11/21 01:24:26;;;;;;;10.72;9.58;;;;;;;2.22;100.00;99289.73;1737770;81;21025;-68
2022/11/21 01:26:53;;;;;;;11.85;9.68;;;;;;;2.23;100.00;99282.38;1738265;80;21530;-68
2022/11/21 01:29:19;;;;;;;9.80;8.80;;;;;;;2.23;100.00;99281.54;1728699;80;21785;-68
2022/11/21 01:31:47;;;;;;;10.82;9.03;;;;;;;2.22;100.00;99280.66;1729639;80;21538;-67
2022/11/21 01:34:16;;;;;;;11.85;10.25;;;;;;;2.25;100.00;99272.84;1737859;80;21904;-68
2022/11/21 01:36:43;;;;;;;11.88;9.25;;;;;;;2.28;100.00;99251.17;1740081;80;21553;-68
2022/11/21 01:39:10;;;;;;;11.78;9.48;;;;;;;2.30;100.00;99244.25;1746745;80;21541;-68
2022/11/21 01:41:40;;;;;;;10.00;9.00;;;;;;;2.30;100.00;99246.39;1731069;80;21870;-69
2022/11/21 01:44:22;;;;;;;11.68;9.18;;;;;;;2.31;100.00;99252.44;1731659;80;21552;-67
2022/11/21 01:46:50;;;;;;;13.18;10.03;;;;;;;2.30;100.00;99249.44;1738030;80;21569;-67
2022/11/21 01:49:26;;;;;;;10.60;8.95;;;;;;;2.26;100.00;99250.34;1737934;81;21592;-67
2022/11/21 01:52:03;;;;;;;11.22;9.50;;;;;;;2.30;100.00;99282.72;1727289;81;21497;-68
2022/11/21 01:54:46;;;;;;;;;;;;;;;2.32;100.00;99271.02;1738872;80;21738;-67
2022/11/21 01:57:27;;;;;;;11.12;9.50;;;;;;;2.25;100.00;99265.06;1720040;81;20428;-67
2022/11/21 02:00:09;;;;;;;11.43;9.55;;;;;;;2.27;100.00;99266.34;1717362;80;21569;-68
2022/11/21 02:02:41;;;;;;;12.70;9.45;;;;;;;2.30;100.00;99267.60;1735061;81;21451;-68
2022/11/21 02:05:10;;;;;;;11.90;9.80;;;;;;;2.30;100.00;99274.09;1731270;80;21470;-67
2022/11/21 02:07:40;;;;;;;12.68;10.18;;;;;;;2.32;100.00;99274.92;1734771;80;21399;-67
2022/11/21 02:10:08;;;;;;;11.95;9.70;;;;;;;2.32;100.00;99276.22;1736093;80;21659;-68
2022/11/21 06:05:06;;;;;;;18.43;10.63;;;;;;;0.26;100.00;99254.73;1762876;79;21521;-64
2022/11/21 06:07:33;;;;;;;19.48;12.53;;;;;;;0.58;100.00;99249.34;1755701;80;21807;-66
2022/11/21 06:10:00;;;;;;;21.57;13.87;;;;;;;0.73;100.00;99231.48;1773417;80;21020;-60
2022/11/21 06:12:26;;;;;;;21.30;13.68;;;;;;;0.86;100.00;99218.45;1775222;79;21575;-61
2022/11/21 06:14:53;;;;;;;22.55;15.13;;;;;;;1.01;100.00;99201.89;1761647;79;21494;-61
2022/11/21 06:17:19;;;;;;;22.50;14.43;;;;;;;1.15;100.00;99205.20;1738377;77;21518;-62
2022/11/21 06:19:46;;;;;;;20.95;14.83;;;;;;;1.29;100.00;99195.95;1720554;82;21521;-62
2022/11/21 06:22:13;;;;;;;22.42;14.83;;;;;;;1.39;100.00;99187.63;1728540;82;21543;-62
2022/11/21 06:24:39;;;;;;;22.87;14.83;;;;;;;1.52;100.00;99183.99;1720537;81;21424;-62
2022/11/21 06:27:06;;;;;;;19.02;14.13;;;;;;;1.64;100.00;99196.80;1722950;82;21445;-60
2022/11/21 06:29:33;;;;;;;20.72;15.00;;;;;;;1.77;100.00;99201.34;1725251;82;21480;-59
2022/11/21 06:32:00;;;;;;;20.27;13.90;;;;;;;1.85;100.00;99189.16;1724702;81;21763;-61
2022/11/21 06:34:27;;;;;;;23.10;15.08;;;;;;;1.94;100.00;99190.31;1728934;81;21496;-61
2022/11/21 06:36:53;;;;;;;21.12;15.65;;;;;;;2.03;100.00;99184.11;1690110;82;21444;-61
2022/11/21 06:39:20;;;;;;;20.27;14.70;;;;;;;2.13;100.00;99186.15;1722026;82;21444;-61
2022/11/21 06:41:49;;;;;;;18.48;14.33;;;;;;;2.19;100.00;99189.09;1723763;82;20925;-63
2022/11/21 06:44:18;;;;;;;19.42;13.80;;;;;;;2.22;100.00;99187.72;1726247;82;21886;-63
2022/11/21 06:46:45;;;;;;;20.57;14.53;;;;;;;2.22;100.00;99191.16;1723211;81;21473;-63
2022/11/21 06:49:12;;;;;;;18.23;14.05;;;;;;;2.19;100.00;99187.79;1726226;82;21040;-61
2022/11/21 06:51:40;;;;;;;23.12;14.58;;;;;;;2.22;100.00;99185.97;1726537;82;28628;-62
2022/11/21 06:54:06;;;;;;;18.10;13.18;;;;;;;2.27;100.00;99186.77;1724259;82;21492;-62
2022/11/21 06:56:33;;;;;;;19.05;14.70;;;;;;;2.32;100.00;99187.55;1726663;82;21481;-63
2022/11/21 06:59:00;;;;;;;22.77;14.95;;;;;;;2.37;100.00;99187.46;1725333;82;21525;-61
2022/11/21 07:01:27;;;;;;;21.57;14.53;;;;;;;2.41;100.00;99179.19;1720036;82;21535;-62
2022/11/21 07:03:54;;;;;;;21.07;14.70;;;;;;;2.42;100.00;99180.46;1724949;81;21532;-61
2022/11/21 07:06:21;;;;;;;22.62;15.18;;;;;;;2.37;100.00;99187.46;1719789;81;21422;-61
2022/11/21 07:08:53;;;;;;;22.95;15.85;;;;;;;2.31;100.00;99195.36;1722994;82;21878;-60
2022/11/21 07:11:20;;;;;;;23.22;14.95;;;;;;;2.37;100.00;99205.63;1723306;82;21400;-60
2022/11/21 07:13:47;;;;;;;21.55;15.45;;;;;;;2.38;100.00;99196.13;1724353;82;21012;-61
2022/11/21 07:16:14;;;;;;;22.27;15.93;;;;;;;2.34;100.00;99196.16;1724363;82;21055;-60
2022/11/21 07:18:41;;;;;;;24.55;16.50;;;;;;;2.42;100.00;99215.50;1715096;82;21198;-59
2022/11/21 07:21:08;;;;;;;24.15;16.82;;;;;;;2.48;100.00;99218.43;1743162;81;21913;-60
2022/11/21 07:23:35;;;;;;;24.95;17.35;;;;;;;2.48;100.00;99210.20;1745731;81;21380;-60
2022/11/21 07:26:04;;;;;;;26.27;16.27;;;;;;;2.54;100.00;99207.94;1743390;81;21519;-60
2022/11/21 07:28:32;;;;;;;25.70;16.62;;;;;;;2.60;100.00;99196.17;1744531;81;21538;-61
2022/11/21 07:30:59;;;;;;;23.30;16.55;;;;;;;2.58;100.00;99198.36;1741754;81;21416;-61
2022/11/21 07:33:26;;;;;;;22.45;15.90;;;;;;;2.31;100.00;99145.61;1744881;81;22139;-61
2022/11/21 07:35:56;;;;;;;22.02;16.23;;;;;;;2.61;100.00;99187.94;1742536;80;21576;-61
2022/11/21 07:38:25;;;;;;;22.13;15.83;;;;;;;2.63;100.00;99182.27;1740387;81;21504;-60
2022/11/21 07:40:52;;;;;;;21.87;15.75;;;;;;;2.64;100.00;99180.95;1747400;80;21492;-60
2022/11/21 07:43:19;;;;;;;20.70;13.55;;;;;;;2.62;100.00;99176.23;1721776;82;21470;-61
2022/11/21 07:45:45;;;;;;;17.73;14.05;;;;;;;2.60;100.00;99170.64;1740169;81;21800;-61
2022/11/21 07:48:12;;;;;;;20.48;14.47;;;;;;;2.64;100.00;99172.32;1735582;81;21550;-61
2022/11/21 07:50:38;;;;;;;17.73;13.45;;;;;;;2.68;100.00;99173.52;1747066;81;21500;-61
2022/11/21 07:53:07;;;;;;;22.05;13.28;;;;;;;2.68;100.00;99170.08;1744389;81;21488;-61
2022/11/21 07:55:33;;;;;;;16.00;12.05;;;;;;;2.67;100.00;99171.79;1730481;81;21553;-62
2022/11/21 07:58:03;;;;;;;16.93;13.20;;;;;;;2.71;100.00;99171.30;1746445;81;21818;-61
2022/11/21 08:00:31;;;;;;;14.80;12.13;;;;;;;2.70;100.00;99168.30;1739036;81;21396;-62
2022/11/21 08:02:58;;;;;;;16.65;11.83;;;;;;;2.69;100.00;99167.88;1746346;80;21385;-61
2022/11/21 08:05:24;;;;;;;16.90;13.25;;;;;;;2.68;100.00;99164.88;1733125;81;21466;-62
2022/11/21 08:07:52;;;;;;;15.28;11.48;;;;;;;2.68;100.00;99162.29;1734175;81;21547;-61
2022/11/21 08:10:19;;;;;;;16.57;12.40;;;;;;;2.72;100.00;99154.40;1743511;81;21473;-61
2022/11/21 08:12:45;;;;;;;17.48;12.47;;;;;;;2.77;100.00;99157.34;1753044;81;21528;-61
2022/11/21 08:15:13;;;;;;;17.45;12.65;;;;;;;2.78;100.00;99154.73;1751468;81;21790;-61
2022/11/21 08:17:39;;;;;;;15.65;11.05;;;;;;;2.81;100.00;99162.47;1748895;81;21444;-61
2022/11/21 08:20:07;;;;;;;15.58;11.78;;;;;;;2.80;100.00;99168.98;1758471;80;21532;-60
2022/11/21 08:22:39;;;;;;;18.90;13.38;;;;;;;2.82;100.00;99168.51;1713757;82;21740;-61
2022/11/21 08:25:07;;;;;;;16.87;13.25;;;;;;;2.83;100.00;99164.59;1720400;81;21528;-62
2022/11/21 08:27:37;;;;;;;20.00;13.93;;;;;;;2.76;100.00;99168.63;1718169;82;21162;-61
2022/11/21 08:30:06;;;;;;;17.57;13.13;;;;;;;2.67;100.00;99161.41;1721653;81;21190;-61
2022/11/21 08:32:34;;;;;;;17.95;12.93;;;;;;;2.61;100.00;99143.81;1718794;81;22054;-61
2022/11/21 08:35:00;;;;;;;18.57;13.03;;;;;;;2.62;100.00;99136.42;1684984;82;22380;-64
2022/11/21 08:37:28;;;;;;;17.20;12.88;;;;;;;2.75;100.00;99138.34;1751370;80;20992;-66
2022/11/21 08:39:57;;;;;;;18.40;13.75;;;;;;;2.83;100.00;99140.37;1740848;80;21515;-66
2022/11/21 08:42:24;;;;;;;20.88;14.73;;;;;;;2.82;100.00;99139.50;1743435;80;21035;-66
2022/11/21 08:44:51;;;;;;;19.30;14.33;;;;;;;2.85;100.00;99135.55;1742147;80;21567;-66
2022/11/21 08:47:19;;;;;;;20.15;14.75;;;;;;;2.83;100.00;99139.92;1750188;80;21705;-66
2022/11/21 08:49:46;;;;;;;;;;;;;;;2.83;100.00;99137.33;1746412;80;21562;-62
2022/11/21 08:52:16;;;;;;;16.65;12.30;;;;;;;2.82;100.00;99128.27;1747408;81;20429;-60
2022/11/21 08:54:44;;;;;;;20.32;13.32;;;;;;;2.86;100.00;99120.41;1746068;80;21093;-60
2022/11/21 08:57:10;;;;;;;15.55;12.47;;;;;;;2.86;100.00;99126.89;1738698;80;21555;-59
2022/11/21 08:59:38;;;;;;;15.48;12.00;;;;;;;2.84;100.00;99128.64;1723681;81;21541;-59
2022/11/21 09:02:06;;;;;;;14.93;11.83;;;;;;;2.86;100.00;99126.89;1720336;81;21505;-60
2022/11/21 09:04:32;;;;;;;15.37;12.23;;;;;;;2.85;100.00;99124.33;1717046;81;21590;-60
2022/11/21 09:06:59;;;;;;;16.17;12.40;;;;;;;2.86;100.00;99128.61;1717469;82;21308;-63
2022/11/21 09:09:26;;;;;;;14.90;11.53;;;;;;;2.89;100.00;99130.70;1709453;81;21052;-60
2022/11/21 09:11:53;;;;;;;16.00;11.90;;;;;;;2.92;100.00;99142.34;1688933;82;21473;-61
2022/11/21 09:19:38;;;;;;;14.65;11.35;;;;;;;3.01;100.00;99139.14;1690012;82;21678;-62
2022/11/21 09:22:05;;;;;;;13.32;9.90;;;;;;;3.04;100.00;99138.64;1711177;82;21548;-60
2022/11/21 09:24:32;;;;;;;13.33;10.67;;;;;;;3.09;100.00;99142.46;1714079;82;22065;-60
2022/11/21 09:26:58;;;;;;;12.95;10.43;;;;;;;3.10;100.00;99135.06;1712721;81;21399;-61
2022/11/21 09:29:25;;;;;;;11.88;10.03;;;;;;;3.15;100.00;99141.48;1721112;81;21532;-61
2022/11/21 09:31:51;;;;;;;11.40;10.20;;;;;;;3.16;100.00;99137.52;1721495;81;21591;-61
2022/11/21 09:34:19;;;;;;;12.98;10.13;;;;;;;3.17;100.00;99131.45;1681962;82;21429;-61
2022/11/21 09:36:45;;;;;;;10.65;9.53;;;;;;;3.17;100.00;99129.31;1719935;81;21880;-60
2022/11/21 09:39:12;;;;;;;12.53;9.68;;;;;;;3.19;100.00;99124.94;1716779;81;21536;-60
2022/11/21 09:41:59;;;;;;;11.95;10.15;;;;;;;3.20;100.00;99124.03;1722474;81;21635;-60
2022/11/21 09:44:54;;;;;;;11.95;9.48;;;;;;;3.17;100.00;99121.06;1660801;83;21037;-60
2022/11/21 09:47:36;;;;;;;11.35;9.63;;;;;;;3.18;100.00;99129.25;1719383;81;21457;-61
2022/11/21 09:50:15;;;;;;;13.85;10.05;;;;;;;3.17;100.00;99122.36;1713813;81;21837;-60
2022/11/21 09:52:57;;;;;;;11.03;8.75;;;;;;;3.18;100.00;99124.51;1711022;81;21068;-61
2022/11/21 09:55:47;;;;;;;11.18;9.20;;;;;;;3.24;100.00;99125.67;1707607;81;21533;-60
2022/11/21 09:58:40;;;;;;;10.20;8.63;;;;;;;3.26;100.00;99122.17;1717540;81;21036;-60
2022/11/21 10:01:11;;;;;;;11.35;8.83;;;;;;;3.25;100.00;99126.94;1691126;81;21107;-60
2022/11/21 10:03:44;;;;;;;10.60;8.60;;;;;;;3.30;100.00;99119.06;1692615;82;21791;-60
2022/11/21 10:06:19;;;;;;;10.85;9.10;;;;;;;3.31;100.00;99108.64;1707413;82;21490;-61
2022/11/21 10:09:16;;;;;;;11.73;9.25;;;;;;;3.30;100.00;99106.92;1721772;81;21033;-61
2022/11/21 14:38:48;;;;;;;4.67;4.17;;;;;;;-0.18;100.00;98576.33;1767632;78;23306;-64
2022/11/21 14:41:27;;;;;;;3.60;3.27;;;;;;;1.01;100.00;98582.72;1739507;80;20998;-70
2022/11/21 14:44:03;;;;;;;5.67;4.00;;;;;;;1.21;100.00;98578.42;1735517;80;21894;-69
2022/11/21 14:46:37;;;;;;;3.87;3.50;;;;;;;1.35;100.00;98577.65;1708372;83;21434;-71
2022/11/21 14:49:24;;;;;;;4.15;3.25;;;;;;;1.50;100.00;98560.06;1695418;81;21556;-68
2022/11/21 14:52:05;;;;;;;4.25;3.85;;;;;;;1.60;100.00;98551.20;1706790;81;22806;-70
2022/11/21 14:54:34;;;;;;;4.05;3.62;;;;;;;1.75;100.00;98544.34;1700061;81;21557;-70
2022/11/21 14:57:07;;;;;;;4.47;4.15;;;;;;;1.83;100.00;98544.16;1705429;83;21805;-72
2022/11/21 14:59:40;;;;;;;3.47;3.17;;;;;;;1.89;100.00;98554.36;1706575;81;21521;-71
2022/11/21 15:02:14;;;;;;;3.85;3.45;;;;;;;1.93;100.00;98559.02;1691396;81;21482;-72
2022/11/21 15:04:40;;;;;;;3.42;3.20;;;;;;;2.06;100.00;98559.12;1704889;81;21489;-70
2022/11/21 15:07:24;;;;;;;4.37;3.47;;;;;;;2.13;100.00;98571.05;1703448;81;21431;-71
2022/11/21 15:09:51;;;;;;;3.30;3.00;;;;;;;2.17;100.00;98571.81;1692692;82;21953;-69
2022/11/21 15:12:26;;;;;;;3.17;2.92;;;;;;;2.25;100.00;98567.73;1703424;81;21517;-73
2022/11/21 15:15:01;;;;;;;2.98;2.77;;;;;;;2.28;100.00;98560.72;1705536;81;21524;-70
2022/11/21 15:17:27;;;;;;;3.50;3.12;;;;;;;2.18;100.00;98558.39;1706825;81;21597;-71
2022/11/21 15:20:12;;;;;;;3.15;2.85;;;;;;;2.23;100.00;98558.69;1694758;81;21513;-72
2022/11/21 15:22:40;;;;;;;4.03;3.62;;;;;;;2.30;100.00;98571.06;1704285;81;21893;-72
2022/11/21 15:25:20;;;;;;;3.10;2.90;;;;;;;2.27;100.00;98564.19;1680036;83;21591;-71
2022/11/21 15:27:48;;;;;;;3.15;2.83;;;;;;;2.28;100.00;98565.03;1700407;82;21626;-72
2022/11/21 15:30:20;;;;;;;2.65;2.45;;;;;;;2.33;100.00;98544.56;1704173;81;21454;-72
2022/11/21 15:33:17;;;;;;;2.90;2.70;;;;;;;2.41;100.00;98537.89;1694215;83;21435;-72
2022/11/21 15:35:56;;;;;;;3.20;2.90;;;;;;;2.47;100.00;98522.61;1672683;83;21932;-67
2022/11/21 15:38:42;;;;;;;3.15;2.85;;;;;;;2.44;100.00;98507.11;1673127;83;21521;-72
2022/11/21 15:41:15;;;;;;;3.05;2.20;;;;;;;2.44;100.00;98509.70;1642482;83;21491;-69
2022/11/21 15:43:52;;;;;;;3.35;3.05;;;;;;;2.41;100.00;98503.30;1677725;83;21106;-75
2022/11/21 15:46:23;;;;;;;2.77;2.57;;;;;;;2.42;100.00;98481.66;1726966;80;21520;-74
2022/11/21 16:18:04;;;;;;;3.47;2.80;;;;;;;2.18;100.00;98414.00;1722551;80;21562;-71
2022/11/21 16:20:33;;;;;;;3.40;3.10;;;;;;;2.15;100.00;98411.52;1683108;82;21599;-73
2022/11/21 16:23:00;;;;;;;3.05;2.85;;;;;;;2.20;100.00;98412.22;1734200;82;21525;-71
2022/11/21 16:25:27;;;;;;;3.37;3.07;;;;;;;2.23;100.00;98410.00;1725525;80;21832;-71
2022/11/21 16:27:54;;;;;;;3.03;2.83;;;;;;;2.28;100.00;98406.38;1727502;82;21438;-72
2022/11/21 16:30:20;;;;;;;4.00;3.65;;;;;;;2.30;100.00;98398.11;1683620;82;21566;-72
2022/11/21 16:32:47;;;;;;;3.50;3.20;;;;;;;2.34;100.00;98384.60;1727778;80;21530;-71
2022/11/21 16:35:14;;;;;;;3.77;3.30;;;;;;;2.37;100.00;98382.35;1726130;80;21592;-72
2022/11/21 16:37:40;;;;;;;3.35;3.12;;;;;;;2.40;100.00;98374.49;1723565;80;21817;-72
2022/11/21 16:40:09;;;;;;;3.43;3.13;;;;;;;2.42;100.00;98372.70;1716886;80;20963;-73
2022/11/21 16:42:36;;;;;;;3.85;3.55;;;;;;;2.46;100.00;98370.41;1675242;84;21487;-73
2022/11/21 16:45:04;;;;;;;3.80;3.50;;;;;;;2.48;100.00;98355.19;1722678;82;21481;-72
2022/11/21 16:47:34;;;;;;;3.42;3.08;;;;;;;2.50;100.00;98351.25;1718337;80;21612;-70
2022/11/21 16:50:03;;;;;;;3.52;3.22;;;;;;;2.51;100.00;98351.20;1645774;84;21913;-72
2022/11/21 16:52:35;;;;;;;2.98;2.77;;;;;;;2.49;100.00;98353.46;1682383;84;21526;-74
2022/11/21 16:55:05;;;;;;;2.98;2.75;;;;;;;2.50;100.00;98361.63;1688176;82;21557;-73
2022/11/21 16:57:34;;;;;;;3.70;3.40;;;;;;;2.45;100.00;98357.02;1718901;82;21578;-73
2022/11/21 17:00:00;;;;;;;3.33;2.92;;;;;;;2.44;100.00;98352.74;1720239;80;21594;-72
2022/11/21 17:02:27;;;;;;;3.92;3.52;;;;;;;2.45;100.00;98358.31;1680925;82;22310;-72
2022/11/21 17:04:54;;;;;;;2.80;2.60;;;;;;;2.48;100.00;98357.78;1719002;80;21546;-71
2022/11/21 17:07:22;;;;;;;3.10;2.80;;;;;;;2.53;100.00;98357.66;1684727;84;21612;-71
2022/11/21 17:09:50;;;;;;;2.98;2.72;;;;;;;2.57;100.00;98354.52;1683226;82;21581;-71
2022/11/21 17:12:17;;;;;;;3.37;2.98;;;;;;;2.61;100.00;98351.77;1678111;84;21628;-72
2022/11/21 17:14:44;;;;;;;3.05;2.80;;;;;;;2.62;100.00;98344.39;1685584;82;21915;-71
2022/11/21 17:17:12;;;;;;;3.00;2.80;;;;;;;2.62;100.00;98341.80;1686062;82;21552;-71
2022/11/21 17:19:39;;;;;;;3.02;2.83;;;;;;;2.66;100.00;98342.55;1721929;80;21553;-71
2022/11/21 17:22:05;;;;;;;3.45;3.00;;;;;;;2.68;100.00;98336.87;1681006;82;21569;-71
2022/11/21 17:24:33;;;;;;;;;;;;;;;2.77;100.00;98331.38;1722469;80;21063;-71
2022/11/21 17:27:01;;;;;;;2.98;2.75;;;;;;;2.69;100.00;98322.55;1724968;80;21091;-70
2022/11/21 17:29:29;;;;;;;2.62;2.40;;;;;;;2.76;100.00;98310.20;1720741;80;21395;-71
2022/11/21 17:31:57;;;;;;;2.75;2.55;;;;;;;2.76;100.00;98319.75;1680378;83;21526;-71
2022/11/21 17:34:25;;;;;;;2.70;2.50;;;;;;;2.75;100.00;98315.02;1720970;80;21503;-71
2022/11/21 17:36:51;;;;;;;2.72;2.52;;;;;;;2.76;100.00;98310.20;1722085;81;21410;-71
2022/11/21 17:39:18;;;;;;;3.02;2.50;;;;;;;2.76;100.00;98299.82;1683556;82;22103;-71
2022/11/21 17:41:44;;;;;;;2.98;2.67;;;;;;;2.80;100.00;98298.81;1695859;83;21541;-71
2022/11/21 17:44:14;;;;;;;2.50;2.30;;;;;;;2.80;100.00;98290.19;1695373;83;21454;-73
2022/11/21 17:46:41;;;;;;;2.67;2.47;;;;;;;2.82;100.00;98291.83;1691244;82;21593;-72
2022/11/21 17:49:08;;;;;;;2.62;2.40;;;;;;;2.84;100.00;98289.19;1698571;81;21419;-71
2022/11/21 17:51:36;;;;;;;3.10;2.80;;;;;;;2.84;100.00;98286.13;1738954;80;21651;-71
2022/11/21 17:54:03;;;;;;;2.50;2.30;;;;;;;2.86;100.00;98288.25;1736960;80;21156;-71
2022/11/21 17:56:32;;;;;;;3.08;2.77;;;;;;;2.83;100.00;98291.40;1735484;80;21430;-73
2022/11/21 17:58:59;;;;;;;2.55;2.35;;;;;;;2.83;100.00;98287.50;1734088;80;21010;-73
2022/11/21 18:01:25;;;;;;;3.43;2.83;;;;;;;2.84;100.00;98295.67;1731004;80;21069;-73
2022/11/21 18:03:59;;;;;;;2.90;2.70;;;;;;;2.83;100.00;98289.64;1734737;80;22220;-71
2022/11/21 18:06:25;;;;;;;3.87;3.05;;;;;;;2.83;100.00;98284.91;1742034;80;21589;-72
2022/11/21 18:08:54;;;;;;;2.35;2.15;;;;;;;2.80;100.00;98282.41;1687249;82;21513;-68
2022/11/21 18:11:20;;;;;;;;;;;;;;;2.80;100.00;98279.34;1691650;82;21092;-69
2022/11/21 20:57:12;;;;;;;3.37;3.02;;;;;;;0.46;100.00;98312.27;1842122;74;23128;-69
2022/11/21 20:59:39;;;;;;;4.30;3.15;;;;;;;1.74;100.00;98331.41;1844030;75;21570;-69
2022/11/21 21:02:10;;;;;;;5.70;3.73;;;;;;;1.82;100.00;98314.80;1838771;75;21451;-69
2022/11/21 21:04:36;;;;;;;3.47;3.17;;;;;;;2.06;100.00;98297.69;1847335;75;20970;-68
2022/11/21 21:07:03;;;;;;;3.87;3.08;;;;;;;2.12;100.00;98278.05;1843378;75;21494;-68
2022/11/21 21:09:30;;;;;;;3.85;2.67;;;;;;;2.26;100.00;98271.13;1840236;75;21475;-69
2022/11/21 21:11:56;;;;;;;4.15;3.02;;;;;;;2.40;100.00;98270.27;1846576;75;21445;-68
2022/11/21 21:14:23;;;;;;;2.95;2.65;;;;;;;2.56;100.00;98259.39;1841235;75;21872;-69
2022/11/21 21:16:49;;;;;;;3.33;2.55;;;;;;;2.63;100.00;98254.41;1845252;75;21593;-70
2022/11/21 21:19:16;;;;;;;3.67;2.60;;;;;;;2.70;100.00;98258.05;1847016;76;21534;-69
2022/11/21 21:21:44;;;;;;;3.75;2.90;;;;;;;2.78;100.00;98256.95;1843707;77;20998;-69
2022/11/21 21:24:11;;;;;;;2.60;2.17;;;;;;;2.82;100.00;98258.08;1834705;75;21465;-69
2022/11/21 21:26:42;;;;;;;3.15;2.55;;;;;;;2.72;100.00;98260.59;1830661;75;21802;-69
2022/11/21 21:29:15;;;;;;;2.60;2.17;;;;;;;2.79;100.00;98267.28;1843265;75;21510;-71
2022/11/21 21:31:43;;;;;;;2.50;2.30;;;;;;;2.92;100.00;98263.37;1843742;76;21621;-71
2022/11/21 21:34:10;;;;;;;2.37;2.17;;;;;;;3.14;100.00;98257.89;1822914;76;21512;-70
2022/11/21 21:36:38;;;;;;;2.10;2.00;;;;;;;3.17;100.00;98255.20;1841874;75;21503;-70
2022/11/21 21:39:04;;;;;;;2.10;1.90;;;;;;;3.20;100.00;98249.88;1833907;77;21851;-69
2022/11/21 21:41:31;;;;;;;2.50;2.30;;;;;;;3.06;100.00;98249.91;1845012;75;20978;-68
2022/11/21 21:43:58;;;;;;;2.20;1.97;;;;;;;3.03;100.00;98250.46;1833883;75;21573;-68
2022/11/21 21:46:27;;;;;;;2.67;2.08;;;;;;;3.19;100.00;98251.64;1842258;75;21037;-69
2022/11/21 21:48:55;;;;;;;2.15;1.98;;;;;;;3.04;100.00;98249.12;1832427;75;21548;-68
2022/11/21 21:51:27;;;;;;;2.27;2.08;;;;;;;3.11;100.00;98247.17;1835990;75;21731;-67
2022/11/21 21:53:55;;;;;;;2.02;1.90;;;;;;;3.10;100.00;98250.20;1838859;75;21510;-68
2022/11/21 21:56:23;;;;;;;1.92;1.82;;;;;;;3.12;100.00;98246.25;1830459;75;21621;-68
2022/11/21 21:58:51;;;;;;;1.67;1.45;;;;;;;3.19;100.00;98254.69;1833022;76;21486;-68
2022/11/21 22:01:22;;;;;;;1.50;1.40;;;;;;;3.14;100.00;98254.84;1835099;75;21810;-68
2022/11/21 22:03:52;;;;;;;2.30;1.77;;;;;;;3.07;100.00;98257.23;1833637;77;22012;-68
2022/11/21 22:06:19;;;;;;;1.52;1.22;;;;;;;3.23;100.00;98257.58;1833396;75;21609;-68
2022/11/21 22:08:47;;;;;;;1.62;1.52;;;;;;;3.18;100.00;98252.52;1839657;75;21017;-68
2022/11/21 22:11:17;;;;;;;1.82;1.70;;;;;;;3.07;100.00;98263.73;1843155;75;21566;-70
2022/11/21 22:13:47;;;;;;;2.02;1.60;;;;;;;3.06;100.00;98267.25;1838749;75;21515;-69
2022/11/21 22:16:15;;;;;;;1.50;1.40;;;;;;;3.08;100.00;98273.23;1850152;75;21498;-67
2022/11/21 22:18:42;;;;;;;1.50;1.40;;;;;;;3.04;100.00;98266.00;1840440;75;21511;-68
2022/11/21 22:21:23;;;;;;;1.65;1.40;;;;;;;3.04;100.00;98276.84;1838615;77;21570;-69
2022/11/21 22:23:51;;;;;;;1.62;1.52;;;;;;;3.10;100.00;98278.77;1842111;75;21467;-66
2022/11/21 22:26:18;;;;;;;1.67;1.57;;;;;;;3.07;100.00;98276.30;1849333;75;21534;-67
2022/11/21 22:28:46;;;;;;;1.57;1.47;;;;;;;3.01;100.00;98271.28;1836187;75;21883;-68
2022/11/21 22:31:14;;;;;;;2.65;1.82;;;;;;;3.04;100.00;98277.69;1840083;75;21520;-68
2022/11/21 22:33:42;;;;;;;;;;;;;;;3.05;100.00;98274.20;1846581;76;21417;-69
2022/11/21 22:36:14;;;;;;;1.50;1.40;;;;;;;3.04;100.00;98271.19;1836256;76;20449;-68
2022/11/21 22:38:41;;;;;;;1.40;1.30;;;;;;;3.05;100.00;98274.20;1837058;75;21411;-68
2022/11/21 22:41:12;;;;;;;2.40;1.60;;;;;;;3.05;100.00;98280.69;1841653;77;21646;-68
2022/11/21 22:43:39;;;;;;;2.05;1.82;;;;;;;3.06;100.00;98274.58;1831689;75;21395;-68
2022/11/21 22:46:06;;;;;;;1.80;1.62;;;;;;;3.05;100.00;98278.52;1833180;75;21221;-68
2022/11/21 22:48:35;;;;;;;2.12;1.85;;;;;;;3.04;100.00;98276.84;1838491;77;21411;-67
2022/11/21 22:51:01;;;;;;;1.62;1.52;;;;;;;2.99;100.00;98273.09;1837350;77;21564;-67
2022/11/21 22:53:28;;;;;;;1.80;1.70;;;;;;;2.93;100.00;98267.65;1844854;75;21838;-67
2022/11/21 22:56:00;;;;;;;3.15;1.75;;;;;;;2.91;100.00;98272.51;1838752;77;21552;-67
2022/11/21 22:58:32;;;;;;;1.42;1.32;;;;;;;2.86;100.00;98272.67;1813276;77;21484;-68
2022/11/21 23:01:07;;;;;;;1.85;1.55;;;;;;;2.87;100.00;98269.63;1813688;77;21524;-67
2022/11/21 23:03:34;;;;;;;2.05;1.90;;;;;;;2.86;100.00;98277.87;1816780;77;20939;-67
2022/11/21 23:06:05;;;;;;;1.87;1.70;;;;;;;2.81;100.00;98284.95;1817051;77;21907;-69
2022/11/21 23:08:32;;;;;;;1.70;1.60;;;;;;;2.72;100.00;98293.87;1816523;77;21587;-67
2022/11/21 23:11:18;;;;;;;2.30;2.10;;;;;;;2.62;100.00;98287.30;1817656;77;21532;-67
2022/11/21 23:13:45;;;;;;;1.77;1.67;;;;;;;2.59;100.00;98295.17;1813641;77;21480;-67
2022/11/21 23:16:14;;;;;;;1.72;1.57;;;;;;;2.26;100.00;98246.06;1810103;77;21503;-68